sensor_id;sensor_type;location;lat;lon;timestamp;temperature;humidity
23403;DHT22;11874;48.228;11.684;2023-01-13T00:00:27;8.40;99.90
23403;DHT22;11874;48.228;11.684;2023-01-13T00:02:56;8.40;99.90
23403;DHT22;11874;48.228;11.684;2023-01-13T00:05:24;8.30;99.90
23403;DHT22;11874;48.228;11.684;2023-01-13T00:07:52;8.60;99.90
23403;DHT22;11874;48.228;11.684;2023-01-13T00:10:21;8.40;99.90
23403;DHT22;11874;48.228;11.684;2023-01-13T00:12:49;8.50;99.90
23403;DHT22;11874;48.228;11.684;2023-01-13T00:15:19;8.50;99.90
23403;DHT22;11874;48.228;11.684;2023-01-13T00:17:48;8.40;99.90
23403;DHT22;11874;48.228;11.684;2023-01-13T00:20:16;8.60;99.90
23403;DHT22;11874;48.228;11.684;2023-01-13T00:22:44;8.80;99.90
23403;DHT22;11874;48.228;11.684;2023-01-13T00:25:12;8.60;99.90
23403;DHT22;11874;48.228;11.684;2023-01-13T00:27:41;8.70;99.90
23403;DHT22;11874;48.228;11.684;2023-01-13T00:30:10;8.70;99.90
23403;DHT22;11874;48.228;11.684;2023-01-13T00:32:38;8.70;99.90
23403;DHT22;11874;48.228;11.684;2023-01-13T00:35:06;8.50;99.90
23403;DHT22;11874;48.228;11.684;2023-01-13T00:37:35;8.50;99.90
23403;DHT22;11874;48.228;11.684;2023-01-13T00:40:05;8.70;99.90
23403;DHT22;11874;48.228;11.684;2023-01-13T00:42:33;8.80;99.90
23403;DHT22;11874;48.228;11.684;2023-01-13T00:45:19;8.80;99.90
23403;DHT22;11874;48.228;11.684;2023-01-13T00:47:47;8.70;99.90
23403;DHT22;11874;48.228;11.684;2023-01-13T00:50:15;8.70;99.90
23403;DHT22;11874;48.228;11.684;2023-01-13T00:52:43;8.70;99.90
23403;DHT22;11874;48.228;11.684;2023-01-13T00:55:11;8.70;99.90
23403;DHT22;11874;48.228;11.684;2023-01-13T00:57:39;8.60;99.90
23403;DHT22;11874;48.228;11.684;2023-01-13T01:00:08;8.50;99.90
23403;DHT22;11874;48.228;11.684;2023-01-13T01:02:37;8.70;99.90
23403;DHT22;11874;48.228;11.684;2023-01-13T01:05:06;8.70;99.90
23403;DHT22;11874;48.228;11.684;2023-01-13T01:07:34;8.70;99.90
23403;DHT22;11874;48.228;11.684;2023-01-13T01:10:03;8.70;99.90
23403;DHT22;11874;48.228;11.684;2023-01-13T01:12:31;8.80;99.90
23403;DHT22;11874;48.228;11.684;2023-01-13T01:14:59;8.70;99.90
23403;DHT22;11874;48.228;11.684;2023-01-13T01:17:27;8.70;99.90
23403;DHT22;11874;48.228;11.684;2023-01-13T01:19:56;8.90;99.90
23403;DHT22;11874;48.228;11.684;2023-01-13T01:22:24;8.70;99.90
23403;DHT22;11874;48.228;11.684;2023-01-13T01:24:52;8.90;99.90
23403;DHT22;11874;48.228;11.684;2023-01-13T01:27:20;8.80;99.90
23403;DHT22;11874;48.228;11.684;2023-01-13T01:29:48;8.80;99.90
23403;DHT22;11874;48.228;11.684;2023-01-13T01:32:16;8.90;99.90
23403;DHT22;11874;48.228;11.684;2023-01-13T01:34:44;8.90;99.90
23403;DHT22;11874;48.228;11.684;2023-01-13T01:37:13;8.80;99.90
23403;DHT22;11874;48.228;11.684;2023-01-13T01:39:41;8.80;99.90
23403;DHT22;11874;48.228;11.684;2023-01-13T01:42:14;8.80;99.90
23403;DHT22;11874;48.228;11.684;2023-01-13T01:45:01;8.90;99.90
23403;DHT22;11874;48.228;11.684;2023-01-13T01:47:30;9.20;99.90
23403;DHT22;11874;48.228;11.684;2023-01-13T01:50:01;8.90;99.90
23403;DHT22;11874;48.228;11.684;2023-01-13T01:52:34;9.00;99.90
23403;DHT22;11874;48.228;11.684;2023-01-13T01:55:06;8.90;99.90
23403;DHT22;11874;48.228;11.684;2023-01-13T01:57:41;8.90;99.90
23403;DHT22;11874;48.228;11.684;2023-01-13T02:00:11;8.90;99.90
23403;DHT22;11874;48.228;11.684;2023-01-13T02:02:40;8.90;99.90
23403;DHT22;11874;48.228;11.684;2023-01-13T02:05:10;8.90;99.90
23403;DHT22;11874;48.228;11.684;2023-01-13T02:07:41;8.80;99.90
23403;DHT22;11874;48.228;11.684;2023-01-13T02:10:12;9.00;99.90
23403;DHT22;11874;48.228;11.684;2023-01-13T02:12:42;8.90;99.90
23403;DHT22;11874;48.228;11.684;2023-01-13T02:15:13;8.90;99.90
23403;DHT22;11874;48.228;11.684;2023-01-13T02:17:51;9.10;99.90
23403;DHT22;11874;48.228;11.684;2023-01-13T02:20:34;8.90;99.90
23403;DHT22;11874;48.228;11.684;2023-01-13T02:29:54;9.00;99.90
23403;DHT22;11874;48.228;11.684;2023-01-13T02:32:49;9.00;99.90
23403;DHT22;11874;48.228;11.684;2023-01-13T02:35:23;9.00;99.90
23403;DHT22;11874;48.228;11.684;2023-01-13T02:37:53;9.00;99.90
23403;DHT22;11874;48.228;11.684;2023-01-13T02:40:25;9.00;99.90
23403;DHT22;11874;48.228;11.684;2023-01-13T02:42:56;9.00;99.90
23403;DHT22;11874;48.228;11.684;2023-01-13T02:45:47;9.10;99.90
23403;DHT22;11874;48.228;11.684;2023-01-13T02:48:19;9.00;99.90
23403;DHT22;11874;48.228;11.684;2023-01-13T02:50:54;9.00;99.90
23403;DHT22;11874;48.228;11.684;2023-01-13T02:53:27;9.00;99.90
23403;DHT22;11874;48.228;11.684;2023-01-13T02:56:01;9.00;99.90
23403;DHT22;11874;48.228;11.684;2023-01-13T02:58:31;9.00;99.90
23403;DHT22;11874;48.228;11.684;2023-01-13T03:01:02;9.00;99.90
23403;DHT22;11874;48.228;11.684;2023-01-13T03:03:30;9.00;99.90
23403;DHT22;11874;48.228;11.684;2023-01-13T03:06:11;9.00;99.90
23403;DHT22;11874;48.228;11.684;2023-01-13T03:08:49;9.00;99.90
23403;DHT22;11874;48.228;11.684;2023-01-13T03:11:17;9.00;99.90
23403;DHT22;11874;48.228;11.684;2023-01-13T03:14:00;9.00;99.90
23403;DHT22;11874;48.228;11.684;2023-01-13T03:17:02;9.00;99.90
23403;DHT22;11874;48.228;11.684;2023-01-13T03:19:36;9.00;99.90
23403;DHT22;11874;48.228;11.684;2023-01-13T03:22:17;9.10;99.90
23403;DHT22;11874;48.228;11.684;2023-01-13T03:24:50;9.10;99.90
23403;DHT22;11874;48.228;11.684;2023-01-13T03:27:21;9.10;99.90
23403;DHT22;11874;48.228;11.684;2023-01-13T03:29:54;9.10;99.90
23403;DHT22;11874;48.228;11.684;2023-01-13T03:32:26;9.10;99.90
23403;DHT22;11874;48.228;11.684;2023-01-13T03:34:59;9.10;99.90
23403;DHT22;11874;48.228;11.684;2023-01-13T03:37:32;9.10;99.90
23403;DHT22;11874;48.228;11.684;2023-01-13T03:40:06;9.10;99.90
23403;DHT22;11874;48.228;11.684;2023-01-13T03:42:37;9.10;99.90
23403;DHT22;11874;48.228;11.684;2023-01-13T03:45:31;9.10;99.90
23403;DHT22;11874;48.228;11.684;2023-01-13T03:48:03;9.20;99.90
23403;DHT22;11874;48.228;11.684;2023-01-13T03:50:36;9.30;99.90
23403;DHT22;11874;48.228;11.684;2023-01-13T03:53:09;9.10;99.90
23403;DHT22;11874;48.228;11.684;2023-01-13T03:55:42;9.00;99.90
23403;DHT22;11874;48.228;11.684;2023-01-13T03:58:14;9.10;99.90
23403;DHT22;11874;48.228;11.684;2023-01-13T04:00:48;9.20;99.90
23403;DHT22;11874;48.228;11.684;2023-01-13T04:03:21;9.20;99.90
23403;DHT22;11874;48.228;11.684;2023-01-13T04:05:52;9.10;99.90
23403;DHT22;11874;48.228;11.684;2023-01-13T04:08:23;9.20;99.90
23403;DHT22;11874;48.228;11.684;2023-01-13T04:10:57;9.20;99.90
23403;DHT22;11874;48.228;11.684;2023-01-13T04:13:29;9.20;99.90
23403;DHT22;11874;48.228;11.684;2023-01-13T04:15:58;9.20;99.90
23403;DHT22;11874;48.228;11.684;2023-01-13T04:18:29;9.20;99.90
23403;DHT22;11874;48.228;11.684;2023-01-13T04:20:59;9.20;99.90
23403;DHT22;11874;48.228;11.684;2023-01-13T04:23:28;9.20;99.90
23403;DHT22;11874;48.228;11.684;2023-01-13T04:25:56;9.20;99.90
23403;DHT22;11874;48.228;11.684;2023-01-13T04:28:24;9.20;99.90
23403;DHT22;11874;48.228;11.684;2023-01-13T04:30:52;9.20;99.90
23403;DHT22;11874;48.228;11.684;2023-01-13T04:33:20;9.20;99.90
23403;DHT22;11874;48.228;11.684;2023-01-13T04:35:49;9.20;99.90
23403;DHT22;11874;48.228;11.684;2023-01-13T04:38:19;9.30;99.90
23403;DHT22;11874;48.228;11.684;2023-01-13T04:40:47;9.10;99.90
23403;DHT22;11874;48.228;11.684;2023-01-13T04:43:15;9.30;99.90
23403;DHT22;11874;48.228;11.684;2023-01-13T04:45:43;9.30;99.90
23403;DHT22;11874;48.228;11.684;2023-01-13T04:48:11;9.30;99.90
23403;DHT22;11874;48.228;11.684;2023-01-13T04:50:39;9.30;99.90
23403;DHT22;11874;48.228;11.684;2023-01-13T04:53:08;9.40;99.90
23403;DHT22;11874;48.228;11.684;2023-01-13T04:55:36;9.40;99.90
23403;DHT22;11874;48.228;11.684;2023-01-13T04:58:05;9.40;99.90
23403;DHT22;11874;48.228;11.684;2023-01-13T05:00:33;9.40;99.90
23403;DHT22;11874;48.228;11.684;2023-01-13T05:03:02;9.40;99.90
23403;DHT22;11874;48.228;11.684;2023-01-13T05:05:30;9.40;99.90
23403;DHT22;11874;48.228;11.684;2023-01-13T05:07:59;9.50;99.90
23403;DHT22;11874;48.228;11.684;2023-01-13T05:10:28;9.50;99.90
23403;DHT22;11874;48.228;11.684;2023-01-13T05:12:56;9.50;99.90
23403;DHT22;11874;48.228;11.684;2023-01-13T05:15:42;9.50;99.90
23403;DHT22;11874;48.228;11.684;2023-01-13T05:18:28;9.50;99.90
23403;DHT22;11874;48.228;11.684;2023-01-13T05:20:57;9.50;99.90
23403;DHT22;11874;48.228;11.684;2023-01-13T05:23:24;9.50;99.90
23403;DHT22;11874;48.228;11.684;2023-01-13T05:26:11;9.50;99.90
23403;DHT22;11874;48.228;11.684;2023-01-13T05:28:39;9.50;99.90
23403;DHT22;11874;48.228;11.684;2023-01-13T05:31:07;9.50;99.90
23403;DHT22;11874;48.228;11.684;2023-01-13T05:33:35;9.50;99.90
23403;DHT22;11874;48.228;11.684;2023-01-13T05:36:03;9.60;99.90
23403;DHT22;11874;48.228;11.684;2023-01-13T05:38:31;9.50;99.90
23403;DHT22;11874;48.228;11.684;2023-01-13T05:40:59;9.60;99.90
23403;DHT22;11874;48.228;11.684;2023-01-13T05:43:46;9.60;99.90
23403;DHT22;11874;48.228;11.684;2023-01-13T05:46:14;9.60;99.90
23403;DHT22;11874;48.228;11.684;2023-01-13T05:48:43;9.60;99.90
23403;DHT22;11874;48.228;11.684;2023-01-13T05:51:11;9.60;99.90
23403;DHT22;11874;48.228;11.684;2023-01-13T05:53:39;9.60;99.90
23403;DHT22;11874;48.228;11.684;2023-01-13T05:56:08;9.70;99.90
23403;DHT22;11874;48.228;11.684;2023-01-13T05:58:36;9.70;99.90
23403;DHT22;11874;48.228;11.684;2023-01-13T06:01:07;9.70;99.90
23403;DHT22;11874;48.228;11.684;2023-01-13T06:03:36;9.60;99.90
23403;DHT22;11874;48.228;11.684;2023-01-13T06:06:04;9.60;99.90
23403;DHT22;11874;48.228;11.684;2023-01-13T06:08:34;9.60;99.90
23403;DHT22;11874;48.228;11.684;2023-01-13T06:11:05;9.70;99.90
23403;DHT22;11874;48.228;11.684;2023-01-13T06:13:33;9.70;99.90
23403;DHT22;11874;48.228;11.684;2023-01-13T06:16:00;9.70;99.90
23403;DHT22;11874;48.228;11.684;2023-01-13T06:18:30;9.70;99.90
23403;DHT22;11874;48.228;11.684;2023-01-13T06:20:57;9.70;99.90
23403;DHT22;11874;48.228;11.684;2023-01-13T06:23:26;9.70;99.90
23403;DHT22;11874;48.228;11.684;2023-01-13T06:25:59;9.70;99.90
23403;DHT22;11874;48.228;11.684;2023-01-13T06:28:28;9.80;99.90
23403;DHT22;11874;48.228;11.684;2023-01-13T06:30:59;9.70;99.90
23403;DHT22;11874;48.228;11.684;2023-01-13T06:33:31;9.80;99.90
23403;DHT22;11874;48.228;11.684;2023-01-13T06:36:03;9.70;99.90
23403;DHT22;11874;48.228;11.684;2023-01-13T06:38:32;9.70;99.90
23403;DHT22;11874;48.228;11.684;2023-01-13T06:41:01;9.50;99.90
23403;DHT22;11874;48.228;11.684;2023-01-13T06:43:29;9.70;99.90
23403;DHT22;11874;48.228;11.684;2023-01-13T06:45:56;9.80;99.90
23403;DHT22;11874;48.228;11.684;2023-01-13T06:48:27;9.70;99.90
23403;DHT22;11874;48.228;11.684;2023-01-13T06:50:59;9.70;99.90
23403;DHT22;11874;48.228;11.684;2023-01-13T06:53:27;9.70;99.90
23403;DHT22;11874;48.228;11.684;2023-01-13T06:55:55;9.80;99.90
23403;DHT22;11874;48.228;11.684;2023-01-13T06:58:23;9.70;99.90
23403;DHT22;11874;48.228;11.684;2023-01-13T07:00:51;9.90;99.90
23403;DHT22;11874;48.228;11.684;2023-01-13T07:03:19;9.70;99.90
23403;DHT22;11874;48.228;11.684;2023-01-13T07:05:51;9.80;99.90
23403;DHT22;11874;48.228;11.684;2023-01-13T07:08:20;9.70;99.90
23403;DHT22;11874;48.228;11.684;2023-01-13T07:10:48;9.80;99.90
23403;DHT22;11874;48.228;11.684;2023-01-13T07:13:16;9.70;99.90
23403;DHT22;11874;48.228;11.684;2023-01-13T07:16:04;9.80;99.90
23403;DHT22;11874;48.228;11.684;2023-01-13T07:18:33;9.90;99.90
23403;DHT22;11874;48.228;11.684;2023-01-13T07:21:03;9.70;99.90
23403;DHT22;11874;48.228;11.684;2023-01-13T07:23:35;9.80;99.90
23403;DHT22;11874;48.228;11.684;2023-01-13T07:26:03;9.80;99.90
23403;DHT22;11874;48.228;11.684;2023-01-13T07:28:31;9.70;99.90
23403;DHT22;11874;48.228;11.684;2023-01-13T07:30:59;9.70;99.90
23403;DHT22;11874;48.228;11.684;2023-01-13T07:33:27;9.70;99.90
23403;DHT22;11874;48.228;11.684;2023-01-13T07:36:00;9.70;99.90
23403;DHT22;11874;48.228;11.684;2023-01-13T07:38:28;9.60;99.90
23403;DHT22;11874;48.228;11.684;2023-01-13T07:40:59;9.80;99.90
23403;DHT22;11874;48.228;11.684;2023-01-13T07:43:48;9.70;99.90
23403;DHT22;11874;48.228;11.684;2023-01-13T07:46:16;9.70;99.90
23403;DHT22;11874;48.228;11.684;2023-01-13T07:48:46;9.70;99.90
23403;DHT22;11874;48.228;11.684;2023-01-13T07:51:14;9.80;99.90
23403;DHT22;11874;48.228;11.684;2023-01-13T07:53:42;9.70;99.90
23403;DHT22;11874;48.228;11.684;2023-01-13T07:56:11;9.70;99.90
23403;DHT22;11874;48.228;11.684;2023-01-13T07:58:39;9.70;99.90
23403;DHT22;11874;48.228;11.684;2023-01-13T08:01:07;9.70;99.90
23403;DHT22;11874;48.228;11.684;2023-01-13T08:03:36;9.80;99.90
23403;DHT22;11874;48.228;11.684;2023-01-13T08:06:04;9.60;99.90
23403;DHT22;11874;48.228;11.684;2023-01-13T08:08:32;9.80;99.90
23403;DHT22;11874;48.228;11.684;2023-01-13T08:11:00;9.80;99.90
23403;DHT22;11874;48.228;11.684;2023-01-13T08:13:30;9.90;99.90
23403;DHT22;11874;48.228;11.684;2023-01-13T08:16:00;10.20;99.90
23403;DHT22;11874;48.228;11.684;2023-01-13T08:18:29;9.90;99.90
23403;DHT22;11874;48.228;11.684;2023-01-13T08:21:01;9.80;99.90
23403;DHT22;11874;48.228;11.684;2023-01-13T08:23:29;9.90;99.90
23403;DHT22;11874;48.228;11.684;2023-01-13T08:25:59;9.80;99.90
23403;DHT22;11874;48.228;11.684;2023-01-13T08:28:27;9.80;99.90
23403;DHT22;11874;48.228;11.684;2023-01-13T08:30:59;9.80;99.90
23403;DHT22;11874;48.228;11.684;2023-01-13T08:33:27;9.80;99.90
23403;DHT22;11874;48.228;11.684;2023-01-13T08:35:55;9.80;99.90
23403;DHT22;11874;48.228;11.684;2023-01-13T08:38:24;9.70;99.90
23403;DHT22;11874;48.228;11.684;2023-01-13T08:40:52;10.00;99.90
23403;DHT22;11874;48.228;11.684;2023-01-13T08:43:20;10.00;99.90
23403;DHT22;11874;48.228;11.684;2023-01-13T08:45:55;9.90;99.90
23403;DHT22;11874;48.228;11.684;2023-01-13T08:48:25;9.90;99.90
23403;DHT22;11874;48.228;11.684;2023-01-13T08:51:01;10.10;99.90
23403;DHT22;11874;48.228;11.684;2023-01-13T08:53:29;10.10;99.90
23403;DHT22;11874;48.228;11.684;2023-01-13T08:55:57;10.00;99.90
23403;DHT22;11874;48.228;11.684;2023-01-13T08:58:25;10.10;99.90
23403;DHT22;11874;48.228;11.684;2023-01-13T09:00:52;10.00;99.90
23403;DHT22;11874;48.228;11.684;2023-01-13T09:03:20;10.00;99.90
23403;DHT22;11874;48.228;11.684;2023-01-13T09:05:49;10.10;99.90
23403;DHT22;11874;48.228;11.684;2023-01-13T09:08:17;10.00;99.90
23403;DHT22;11874;48.228;11.684;2023-01-13T09:10:45;10.10;99.90
23403;DHT22;11874;48.228;11.684;2023-01-13T09:13:13;10.10;99.90
23403;DHT22;11874;48.228;11.684;2023-01-13T09:15:43;10.00;99.90
23403;DHT22;11874;48.228;11.684;2023-01-13T09:18:11;10.10;99.90
23403;DHT22;11874;48.228;11.684;2023-01-13T09:20:39;10.10;99.90
23403;DHT22;11874;48.228;11.684;2023-01-13T09:23:09;10.10;99.90
23403;DHT22;11874;48.228;11.684;2023-01-13T09:25:37;10.20;99.90
23403;DHT22;11874;48.228;11.684;2023-01-13T09:28:05;10.30;99.90
23403;DHT22;11874;48.228;11.684;2023-01-13T09:30:35;10.20;99.90
23403;DHT22;11874;48.228;11.684;2023-01-13T09:33:03;10.20;99.90
23403;DHT22;11874;48.228;11.684;2023-01-13T09:35:48;10.30;99.90
23403;DHT22;11874;48.228;11.684;2023-01-13T09:38:17;10.30;99.90
23403;DHT22;11874;48.228;11.684;2023-01-13T09:40:46;10.30;99.90
23403;DHT22;11874;48.228;11.684;2023-01-13T09:43:18;10.30;99.90
23403;DHT22;11874;48.228;11.684;2023-01-13T09:46:09;10.40;99.90
23403;DHT22;11874;48.228;11.684;2023-01-13T09:49:00;10.40;99.90
23403;DHT22;11874;48.228;11.684;2023-01-13T09:51:32;10.40;99.90
23403;DHT22;11874;48.228;11.684;2023-01-13T09:54:10;10.40;99.90
23403;DHT22;11874;48.228;11.684;2023-01-13T09:56:41;10.50;99.90
23403;DHT22;11874;48.228;11.684;2023-01-13T09:59:10;10.50;99.90
23403;DHT22;11874;48.228;11.684;2023-01-13T10:01:45;10.50;99.90
23403;DHT22;11874;48.228;11.684;2023-01-13T10:04:17;10.60;99.90
23403;DHT22;11874;48.228;11.684;2023-01-13T10:06:47;10.50;99.90
23403;DHT22;11874;48.228;11.684;2023-01-13T10:09:21;10.60;99.90
23403;DHT22;11874;48.228;11.684;2023-01-13T10:11:50;10.70;99.90
23403;DHT22;11874;48.228;11.684;2023-01-13T10:14:40;10.70;99.90
23403;DHT22;11874;48.228;11.684;2023-01-13T10:17:16;10.70;99.90
23403;DHT22;11874;48.228;11.684;2023-01-13T10:19:47;10.60;99.90
23403;DHT22;11874;48.228;11.684;2023-01-13T10:22:33;10.60;99.90
23403;DHT22;11874;48.228;11.684;2023-01-13T10:25:19;10.60;99.90
23403;DHT22;11874;48.228;11.684;2023-01-13T10:27:50;10.60;99.90
23403;DHT22;11874;48.228;11.684;2023-01-13T10:30:22;10.60;99.90
23403;DHT22;11874;48.228;11.684;2023-01-13T10:32:56;10.60;99.90
23403;DHT22;11874;48.228;11.684;2023-01-13T10:35:50;10.60;99.90
23403;DHT22;11874;48.228;11.684;2023-01-13T10:38:20;10.60;99.90
23403;DHT22;11874;48.228;11.684;2023-01-13T10:40:51;10.60;99.90
23403;DHT22;11874;48.228;11.684;2023-01-13T10:43:20;10.60;99.90
23403;DHT22;11874;48.228;11.684;2023-01-13T10:45:56;10.60;99.90
23403;DHT22;11874;48.228;11.684;2023-01-13T10:48:32;10.60;99.90
23403;DHT22;11874;48.228;11.684;2023-01-13T10:51:18;10.70;99.90
23403;DHT22;11874;48.228;11.684;2023-01-13T10:53:51;10.70;99.90
23403;DHT22;11874;48.228;11.684;2023-01-13T10:56:22;10.80;99.90
23403;DHT22;11874;48.228;11.684;2023-01-13T10:58:50;10.90;99.90
23403;DHT22;11874;48.228;11.684;2023-01-13T11:01:23;10.90;99.90
23403;DHT22;11874;48.228;11.684;2023-01-13T11:03:53;11.10;99.90
23403;DHT22;11874;48.228;11.684;2023-01-13T11:06:23;11.10;99.90
23403;DHT22;11874;48.228;11.684;2023-01-13T11:08:53;11.20;99.90
23403;DHT22;11874;48.228;11.684;2023-01-13T11:11:32;11.30;99.90
23403;DHT22;11874;48.228;11.684;2023-01-13T11:14:07;11.30;99.90
23403;DHT22;11874;48.228;11.684;2023-01-13T11:16:56;11.30;99.90
23403;DHT22;11874;48.228;11.684;2023-01-13T11:19:28;11.40;99.90
23403;DHT22;11874;48.228;11.684;2023-01-13T11:22:01;11.40;99.90
23403;DHT22;11874;48.228;11.684;2023-01-13T11:24:35;11.40;99.90
23403;DHT22;11874;48.228;11.684;2023-01-13T11:27:10;11.40;99.90
23403;DHT22;11874;48.228;11.684;2023-01-13T11:29:48;11.50;99.90
23403;DHT22;11874;48.228;11.684;2023-01-13T11:32:22;11.30;99.90
23403;DHT22;11874;48.228;11.684;2023-01-13T11:34:53;11.40;99.90
23403;DHT22;11874;48.228;11.684;2023-01-13T11:37:24;11.30;99.90
23403;DHT22;11874;48.228;11.684;2023-01-13T11:39:56;11.20;99.90
23403;DHT22;11874;48.228;11.684;2023-01-13T11:42:33;11.20;99.90
23403;DHT22;11874;48.228;11.684;2023-01-13T11:45:11;11.20;99.90
23403;DHT22;11874;48.228;11.684;2023-01-13T11:47:43;11.20;99.90
23403;DHT22;11874;48.228;11.684;2023-01-13T11:50:16;11.10;99.90
23403;DHT22;11874;48.228;11.684;2023-01-13T11:53:03;11.10;99.90
23403;DHT22;11874;48.228;11.684;2023-01-13T11:55:40;11.20;99.90
23403;DHT22;11874;48.228;11.684;2023-01-13T11:58:35;11.20;99.90
23403;DHT22;11874;48.228;11.684;2023-01-13T12:01:28;11.20;99.90
23403;DHT22;11874;48.228;11.684;2023-01-13T12:04:16;11.20;99.90
23403;DHT22;11874;48.228;11.684;2023-01-13T12:06:51;11.10;99.90
23403;DHT22;11874;48.228;11.684;2023-01-13T12:09:29;11.10;99.90
23403;DHT22;11874;48.228;11.684;2023-01-13T12:12:09;11.10;99.90
23403;DHT22;11874;48.228;11.684;2023-01-13T12:15:04;11.10;99.90
23403;DHT22;11874;48.228;11.684;2023-01-13T12:17:41;11.10;99.90
23403;DHT22;11874;48.228;11.684;2023-01-13T12:20:24;11.20;99.90
23403;DHT22;11874;48.228;11.684;2023-01-13T12:23:00;11.20;99.90
23403;DHT22;11874;48.228;11.684;2023-01-13T12:25:32;11.20;99.90
23403;DHT22;11874;48.228;11.684;2023-01-13T12:28:08;11.30;99.90
23403;DHT22;11874;48.228;11.684;2023-01-13T12:30:44;11.30;99.90
23403;DHT22;11874;48.228;11.684;2023-01-13T12:33:23;11.30;99.90
23403;DHT22;11874;48.228;11.684;2023-01-13T12:35:59;11.30;99.90
23403;DHT22;11874;48.228;11.684;2023-01-13T12:38:34;11.20;99.90
23403;DHT22;11874;48.228;11.684;2023-01-13T12:41:11;11.10;99.90
23403;DHT22;11874;48.228;11.684;2023-01-13T12:43:44;11.10;99.90
23403;DHT22;11874;48.228;11.684;2023-01-13T12:46:47;11.10;99.90
23403;DHT22;11874;48.228;11.684;2023-01-13T12:49:21;11.10;99.90
23403;DHT22;11874;48.228;11.684;2023-01-13T12:52:08;11.10;99.90
23403;DHT22;11874;48.228;11.684;2023-01-13T12:55:02;11.00;99.90
23403;DHT22;11874;48.228;11.684;2023-01-13T12:57:31;11.00;99.90
23403;DHT22;11874;48.228;11.684;2023-01-13T13:00:15;11.10;99.90
23403;DHT22;11874;48.228;11.684;2023-01-13T13:03:17;11.10;99.90
23403;DHT22;11874;48.228;11.684;2023-01-13T13:05:53;11.00;99.90
23403;DHT22;11874;48.228;11.684;2023-01-13T13:08:25;11.00;99.90
23403;DHT22;11874;48.228;11.684;2023-01-13T13:14:58;10.90;99.90
23403;DHT22;11874;48.228;11.684;2023-01-13T13:17:39;10.90;99.90
23403;DHT22;11874;48.228;11.684;2023-01-13T13:23:28;10.90;99.90
23403;DHT22;11874;48.228;11.684;2023-01-13T13:26:04;10.80;99.90
23403;DHT22;11874;48.228;11.684;2023-01-13T13:28:35;10.80;99.90
23403;DHT22;11874;48.228;11.684;2023-01-13T13:31:18;10.70;99.90
23403;DHT22;11874;48.228;11.684;2023-01-13T13:33:56;10.80;99.90
23403;DHT22;11874;48.228;11.684;2023-01-13T13:36:52;11.00;99.90
23403;DHT22;11874;48.228;11.684;2023-01-13T13:39:25;11.50;99.90
23403;DHT22;11874;48.228;11.684;2023-01-13T13:42:13;11.60;99.90
23403;DHT22;11874;48.228;11.684;2023-01-13T13:45:00;11.50;99.90
23403;DHT22;11874;48.228;11.684;2023-01-13T13:47:46;11.30;99.90
23403;DHT22;11874;48.228;11.684;2023-01-13T13:50:16;11.30;99.90
23403;DHT22;11874;48.228;11.684;2023-01-13T13:52:50;11.30;99.90
23403;DHT22;11874;48.228;11.684;2023-01-13T13:55:22;11.30;99.90
23403;DHT22;11874;48.228;11.684;2023-01-13T13:57:52;11.30;99.90
23403;DHT22;11874;48.228;11.684;2023-01-13T14:00:25;11.20;99.90
23403;DHT22;11874;48.228;11.684;2023-01-13T14:02:56;11.30;99.90
23403;DHT22;11874;48.228;11.684;2023-01-13T14:05:26;11.40;99.90
23403;DHT22;11874;48.228;11.684;2023-01-13T14:08:00;11.40;99.90
23403;DHT22;11874;48.228;11.684;2023-01-13T14:10:30;11.30;99.90
23403;DHT22;11874;48.228;11.684;2023-01-13T14:12:59;11.00;99.90
23403;DHT22;11874;48.228;11.684;2023-01-13T14:15:31;10.50;99.90
23403;DHT22;11874;48.228;11.684;2023-01-13T14:18:01;10.00;99.90
23403;DHT22;11874;48.228;11.684;2023-01-13T14:20:30;9.80;99.90
23403;DHT22;11874;48.228;11.684;2023-01-13T14:23:01;9.60;99.90
23403;DHT22;11874;48.228;11.684;2023-01-13T14:25:34;9.50;99.90
23403;DHT22;11874;48.228;11.684;2023-01-13T14:28:17;9.40;99.90
23403;DHT22;11874;48.228;11.684;2023-01-13T14:30:45;9.30;99.90
23403;DHT22;11874;48.228;11.684;2023-01-13T14:33:15;9.40;99.90
23403;DHT22;11874;48.228;11.684;2023-01-13T14:36:03;9.40;99.90
23403;DHT22;11874;48.228;11.684;2023-01-13T14:38:32;9.40;99.90
23403;DHT22;11874;48.228;11.684;2023-01-13T14:41:15;9.40;99.90
23403;DHT22;11874;48.228;11.684;2023-01-13T14:43:45;9.20;99.90
23403;DHT22;11874;48.228;11.684;2023-01-13T14:46:14;9.00;99.90
23403;DHT22;11874;48.228;11.684;2023-01-13T14:48:43;9.10;99.90
23403;DHT22;11874;48.228;11.684;2023-01-13T14:51:21;9.00;99.90
23403;DHT22;11874;48.228;11.684;2023-01-13T14:53:52;9.00;99.90
23403;DHT22;11874;48.228;11.684;2023-01-13T14:56:38;9.00;99.90
23403;DHT22;11874;48.228;11.684;2023-01-13T14:59:34;8.90;99.90
23403;DHT22;11874;48.228;11.684;2023-01-13T15:02:30;8.90;99.90
23403;DHT22;11874;48.228;11.684;2023-01-13T15:08:21;8.80;99.90
23403;DHT22;11874;48.228;11.684;2023-01-13T15:10:55;8.80;99.90
23403;DHT22;11874;48.228;11.684;2023-01-13T15:13:38;8.80;99.90
23403;DHT22;11874;48.228;11.684;2023-01-13T15:16:16;8.80;99.90
23403;DHT22;11874;48.228;11.684;2023-01-13T15:18:44;8.80;99.90
23403;DHT22;11874;48.228;11.684;2023-01-13T15:21:13;8.80;99.90
23403;DHT22;11874;48.228;11.684;2023-01-13T15:23:42;8.80;99.90
23403;DHT22;11874;48.228;11.684;2023-01-13T15:26:20;8.80;99.90
23403;DHT22;11874;48.228;11.684;2023-01-13T15:28:49;8.80;99.90
23403;DHT22;11874;48.228;11.684;2023-01-13T15:31:17;8.80;99.90
23403;DHT22;11874;48.228;11.684;2023-01-13T15:33:45;8.80;99.90
23403;DHT22;11874;48.228;11.684;2023-01-13T15:36:20;8.80;99.90
23403;DHT22;11874;48.228;11.684;2023-01-13T15:38:48;8.80;99.90
23403;DHT22;11874;48.228;11.684;2023-01-13T15:41:18;8.80;99.90
23403;DHT22;11874;48.228;11.684;2023-01-13T15:44:07;8.70;99.90
23403;DHT22;11874;48.228;11.684;2023-01-13T15:46:54;8.70;99.90
23403;DHT22;11874;48.228;11.684;2023-01-13T15:49:26;8.70;99.90
23403;DHT22;11874;48.228;11.684;2023-01-13T15:52:01;8.70;99.90
23403;DHT22;11874;48.228;11.684;2023-01-13T15:54:29;8.70;99.90
23403;DHT22;11874;48.228;11.684;2023-01-13T15:56:58;8.70;99.90
23403;DHT22;11874;48.228;11.684;2023-01-13T15:59:26;8.60;99.90
23403;DHT22;11874;48.228;11.684;2023-01-13T16:01:54;8.60;99.90
23403;DHT22;11874;48.228;11.684;2023-01-13T16:04:22;8.60;99.90
23403;DHT22;11874;48.228;11.684;2023-01-13T16:06:49;8.60;99.90
23403;DHT22;11874;48.228;11.684;2023-01-13T16:09:17;8.50;99.90
23403;DHT22;11874;48.228;11.684;2023-01-13T16:11:45;8.50;99.90
23403;DHT22;11874;48.228;11.684;2023-01-13T16:14:14;8.50;99.90
23403;DHT22;11874;48.228;11.684;2023-01-13T16:16:42;8.50;99.90